CheckWX is a tool to help pilots better visualize weather data.  It is not intended as a substitute for an official pre-flight weather briefing.

00:29:59 UTC

LFMO METAR
Orange-Caritat (BA 115) Air Base Airport
Orange/Caritat, France
Current

30 mins ago

LFMO 170000Z AUTO 00000KT CAVOK 18/14 Q1017 NOSIG
Observed
Sep-17 @ 00:00 UTC
Visibility
10,000+ meters
Flight Rules
VFR
Cloud Levels
  • Clear skies
Temperature
18°C / 64°F
Dewpoint
14°C / 57°F
Humidity
78%
Altimeter
30.03" Hg
Pressure
1016.92 hPa
Previous

60 mins ago

LFMO 162330Z AUTO 00000KT CAVOK 18/14 Q1017 NOSIG
Observed
Sep-16 @ 23:30 UTC
Visibility
10,000+ meters
Flight Rules
VFR
Cloud Levels
  • Clear skies
Temperature
18°C / 64°F
Dewpoint
14°C / 57°F
Humidity
78%
Altimeter
30.03" Hg
Pressure
1016.92 hPa
Previous

1 hour ago

LFMO 162300Z AUTO 13002KT CAVOK 19/15 Q1017 NOSIG
Observed
Sep-16 @ 23:00 UTC
Wind
  • 130° at 2 KTS
Visibility
10,000+ meters
Flight Rules
VFR
Cloud Levels
  • Clear skies
Temperature
19°C / 66°F
Dewpoint
15°C / 59°F
Humidity
78%
Altimeter
30.03" Hg
Pressure
1016.92 hPa